createdAt,value
2018-02-22T00:00:52.113Z,-0.90
2018-02-22T00:03:19.699Z,-0.93
2018-02-22T00:05:47.235Z,-0.92
2018-02-22T00:08:14.798Z,-0.94
2018-02-22T00:10:42.332Z,-0.98
2018-02-22T00:13:09.869Z,-0.98
2018-02-22T00:15:37.419Z,-0.97
2018-02-22T00:18:04.987Z,-0.93
2018-02-22T00:20:32.539Z,-0.94
2018-02-22T00:23:00.088Z,-0.94
2018-02-22T00:25:28.412Z,-0.97
2018-02-22T00:27:55.965Z,-1.04
2018-02-22T00:30:23.521Z,-1.09
2018-02-22T00:32:51.094Z,-1.07
2018-02-22T00:35:18.646Z,-1.10
2018-02-22T00:37:46.209Z,-1.08
2018-02-22T00:40:13.732Z,-1.11
2018-02-22T00:42:41.310Z,-1.14
2018-02-22T00:45:08.871Z,-1.19
2018-02-22T00:47:36.393Z,-1.18
2018-02-22T00:50:03.923Z,-1.19
2018-02-22T00:52:31.463Z,-1.26
2018-02-22T00:54:59.074Z,-1.28
2018-02-22T00:57:26.614Z,-1.30
2018-02-22T00:59:54.209Z,-1.34
2018-02-22T01:02:21.776Z,-1.31
2018-02-22T01:04:49.317Z,-1.38
2018-02-22T01:07:16.891Z,-1.37
2018-02-22T01:09:44.496Z,-1.38
2018-02-22T01:12:12.039Z,-1.41
2018-02-22T01:14:39.574Z,-1.37
2018-02-22T01:17:07.151Z,-1.37
2018-02-22T01:19:34.708Z,-1.38
2018-02-22T02:02:10.632Z,-1.51
2018-02-22T02:04:38.186Z,-1.56
2018-02-22T02:07:05.723Z,-1.65
2018-02-22T02:09:33.243Z,-1.67
2018-02-22T02:12:00.853Z,-1.69
2018-02-22T02:14:28.370Z,-1.73
2018-02-22T02:16:55.930Z,-1.67
2018-02-22T03:17:02.941Z,-2.08
2018-02-22T03:19:30.494Z,-2.20
2018-02-22T03:21:58.074Z,-2.18
2018-02-22T03:24:25.570Z,-2.24
2018-02-22T03:58:30.030Z,-2.66
2018-02-22T04:00:57.540Z,-2.64
2018-02-22T04:03:25.081Z,-2.71
2018-02-22T04:05:53.914Z,-2.73
2018-02-22T04:08:21.433Z,-2.76
2018-02-22T04:10:48.925Z,-2.74
2018-02-22T04:13:16.516Z,-2.71
2018-02-22T04:15:44.093Z,-2.73
2018-02-22T04:18:11.586Z,-2.72
2018-02-22T04:20:39.103Z,-2.74
2018-02-22T04:23:06.601Z,-2.75
2018-02-22T04:25:34.152Z,-2.76
2018-02-22T04:28:01.714Z,-2.77
2018-02-22T04:30:29.232Z,-2.76
2018-02-22T04:32:56.815Z,-2.74
2018-02-22T04:35:24.431Z,-2.71
2018-02-22T04:37:52.011Z,-2.70
2018-02-22T04:40:19.584Z,-2.64
2018-02-22T04:42:47.104Z,-2.61
2018-02-22T04:45:14.832Z,-2.51
2018-02-22T04:47:42.389Z,-2.43
2018-02-22T04:50:09.900Z,-2.31
2018-02-22T04:52:37.458Z,-2.23
2018-02-22T04:55:04.969Z,-2.18
2018-02-22T04:57:32.573Z,-2.04
2018-02-22T05:00:00.116Z,-1.99
2018-02-22T05:02:28.470Z,-1.92
2018-02-22T05:04:56.008Z,-1.89
2018-02-22T05:07:23.547Z,-1.75
2018-02-22T05:09:51.085Z,-1.76
2018-02-22T05:12:18.637Z,-1.68
2018-02-22T05:14:46.185Z,-1.63
2018-02-22T05:17:13.690Z,-1.65
2018-02-22T05:19:41.200Z,-1.61
2018-02-22T05:22:08.764Z,-1.56
2018-02-22T05:24:36.296Z,-1.55
2018-02-22T05:27:03.904Z,-1.52
2018-02-22T05:29:31.434Z,-1.53
2018-02-22T05:31:58.933Z,-1.60
2018-02-22T05:34:26.509Z,-1.56
2018-02-22T05:36:54.165Z,-1.59
2018-02-22T05:39:21.863Z,-1.62
2018-02-22T05:41:49.613Z,-1.75
2018-02-22T05:44:17.165Z,-1.73
2018-02-22T05:46:44.666Z,-1.76
2018-02-22T05:49:12.158Z,-1.82
2018-02-22T05:51:39.684Z,-1.86
2018-02-22T05:54:08.110Z,-1.83
2018-02-22T05:56:35.616Z,-1.77
2018-02-22T05:59:05.270Z,-1.82
2018-02-22T06:01:32.789Z,-1.86
2018-02-22T06:04:00.333Z,-1.90
2018-02-22T06:06:27.837Z,-1.86
2018-02-22T06:08:55.386Z,-1.82
2018-02-22T06:11:22.929Z,-1.84
2018-02-22T06:13:50.552Z,-1.81
2018-02-22T06:16:18.046Z,-1.80
2018-02-22T06:18:45.601Z,-1.82
2018-02-22T06:21:13.111Z,-1.88
2018-02-22T06:23:40.673Z,-1.89
2018-02-22T06:26:08.220Z,-1.92
2018-02-22T06:28:35.797Z,-1.83
2018-02-22T06:31:03.320Z,-1.88
2018-02-22T06:33:36.489Z,-1.89
2018-02-22T06:36:04.161Z,-1.86
2018-02-22T06:38:31.713Z,-1.77
2018-02-22T06:40:59.273Z,-1.81
2018-02-22T06:43:27.178Z,-1.88
2018-02-22T06:45:54.818Z,-1.95
2018-02-22T06:48:22.461Z,-1.96
2018-02-22T06:50:50.030Z,-1.98
2018-02-22T06:53:17.569Z,-1.88
2018-02-22T06:55:45.098Z,-1.94
2018-02-22T06:58:12.659Z,-2.01
2018-02-22T07:00:40.228Z,-1.96
2018-02-22T07:03:07.824Z,-1.93
2018-02-22T07:05:35.379Z,-1.97
2018-02-22T07:08:03.069Z,-1.89
2018-02-22T07:10:30.616Z,-1.95
2018-02-22T07:12:59.501Z,-1.91
2018-02-22T07:15:27.054Z,-1.85
2018-02-22T07:17:54.605Z,-1.77
2018-02-22T07:20:24.738Z,-1.59
2018-02-22T07:22:52.305Z,-1.60
2018-02-22T07:25:19.826Z,-1.37
2018-02-22T07:27:47.427Z,-1.17
2018-02-22T07:30:15.031Z,-1.43
2018-02-22T07:32:42.563Z,-1.40
2018-02-22T07:35:10.118Z,-1.58
2018-02-22T07:37:37.693Z,-1.53
2018-02-22T07:40:05.285Z,-1.53
2018-02-22T07:42:32.778Z,-1.43
2018-02-22T07:45:00.294Z,-1.58
2018-02-22T07:47:27.820Z,-1.43
2018-02-22T07:49:55.406Z,-1.49
2018-02-22T07:52:22.919Z,-1.53
2018-02-22T07:54:50.441Z,-1.50
2018-02-22T07:57:18.005Z,-1.56
2018-02-22T07:59:45.506Z,-1.43
2018-02-22T08:02:13.007Z,-1.39
2018-02-22T08:04:40.536Z,-1.43
2018-02-22T08:07:08.059Z,-1.46
2018-02-22T08:09:35.557Z,-1.42
2018-02-22T08:12:03.075Z,-1.28
2018-02-22T08:14:30.651Z,-1.27
2018-02-22T08:16:58.187Z,-1.19
2018-02-22T08:19:25.717Z,-1.35
2018-02-22T08:21:53.214Z,-1.25
2018-02-22T08:24:20.733Z,-1.73
2018-02-22T08:26:48.254Z,-1.36
2018-02-22T08:29:15.803Z,-1.33
2018-02-22T08:31:43.328Z,-1.35
2018-02-22T08:34:10.866Z,-1.33
2018-02-22T08:36:38.376Z,-1.26
2018-02-22T08:39:05.903Z,-1.38
2018-02-22T08:41:33.420Z,-1.32
2018-02-22T08:44:00.940Z,-1.00
2018-02-22T08:46:28.497Z,-0.68
2018-02-22T08:48:56.009Z,-0.12
2018-02-22T08:51:23.612Z,-0.16
2018-02-22T08:53:51.127Z,-0.54
2018-02-22T08:56:18.648Z,-0.11
2018-02-22T08:58:46.145Z,0.77
2018-02-22T09:01:13.684Z,0.56
2018-02-22T09:03:41.202Z,0.42
2018-02-22T09:06:08.713Z,0.31
2018-02-22T09:08:36.238Z,0.67
2018-02-22T09:11:03.759Z,0.46
2018-02-22T09:13:31.282Z,0.26
2018-02-22T09:15:58.776Z,0.94
2018-02-22T09:18:26.290Z,1.32
2018-02-22T09:20:53.813Z,1.63
2018-02-22T09:23:21.323Z,0.56
2018-02-22T09:25:48.822Z,0.78
2018-02-22T09:28:16.342Z,0.91
2018-02-22T09:30:43.868Z,1.24
2018-02-22T09:33:11.364Z,2.86
2018-02-22T09:35:38.873Z,2.99
2018-02-22T09:38:06.378Z,1.52
2018-02-22T09:40:33.954Z,1.20
2018-02-22T09:43:01.466Z,1.72
2018-02-22T09:45:28.990Z,1.16
2018-02-22T09:47:56.515Z,1.12
2018-02-22T09:50:24.058Z,2.32
2018-02-22T09:52:51.566Z,0.96
2018-02-22T09:55:19.081Z,2.06
2018-02-22T09:57:46.633Z,3.16
2018-02-22T10:00:14.197Z,1.56
2018-02-22T10:02:41.742Z,2.16
2018-02-22T10:05:09.268Z,1.95
2018-02-22T10:07:36.781Z,1.75
2018-02-22T10:10:04.343Z,1.38
2018-02-22T10:12:32.037Z,1.38
2018-02-22T10:14:59.581Z,0.99
2018-02-22T10:17:27.070Z,1.44
2018-02-22T10:19:54.587Z,1.56
2018-02-22T10:22:22.104Z,1.42
2018-02-22T10:24:49.602Z,1.44
2018-02-22T10:27:17.152Z,1.57
2018-02-22T10:29:44.659Z,1.42
2018-02-22T10:32:12.170Z,1.84
2018-02-22T10:34:39.693Z,1.24
2018-02-22T10:37:07.207Z,1.28
2018-02-22T10:39:34.736Z,1.69
2018-02-22T10:42:02.262Z,1.73
2018-02-22T10:44:29.781Z,2.11
2018-02-22T10:46:57.320Z,1.99
2018-02-22T10:49:24.833Z,2.09
2018-02-22T10:51:52.340Z,2.09
2018-02-22T10:54:19.819Z,2.10
2018-02-22T10:56:47.349Z,1.79
2018-02-22T10:59:14.840Z,1.89
2018-02-22T11:01:47.920Z,2.07
2018-02-22T11:04:15.417Z,2.50
2018-02-22T11:06:42.936Z,2.15
2018-02-22T11:09:10.448Z,2.54
2018-02-22T11:11:37.949Z,2.86
2018-02-22T11:14:05.504Z,2.55
2018-02-22T11:16:33.087Z,2.56
2018-02-22T11:19:00.622Z,2.44
2018-02-22T11:21:28.134Z,2.93
2018-02-22T11:23:55.657Z,2.86
2018-02-22T11:26:23.199Z,2.98
2018-02-22T11:28:50.713Z,3.13
2018-02-22T11:31:18.217Z,2.98
2018-02-22T11:33:45.782Z,3.12
2018-02-22T11:36:13.326Z,3.02
2018-02-22T11:38:40.855Z,3.04
2018-02-22T11:41:08.410Z,3.28
2018-02-22T11:43:35.975Z,2.90
2018-02-22T11:46:03.536Z,3.03
2018-02-22T11:48:31.065Z,3.14
2018-02-22T11:50:58.647Z,3.10
2018-02-22T11:53:26.187Z,3.18
2018-02-22T11:55:53.749Z,3.22
2018-02-22T11:58:21.277Z,3.23
2018-02-22T12:00:48.843Z,3.18
2018-02-22T12:03:16.368Z,3.37
2018-02-22T12:05:43.892Z,3.09
2018-02-22T12:08:11.415Z,3.12
2018-02-22T12:10:38.925Z,3.21
2018-02-22T12:13:06.426Z,3.42
2018-02-22T12:15:33.917Z,3.40
2018-02-22T12:18:01.446Z,3.49
2018-02-22T12:20:28.963Z,3.39
2018-02-22T12:22:56.485Z,3.35
2018-02-22T12:25:24.049Z,3.62
2018-02-22T12:27:51.581Z,3.55
2018-02-22T12:30:19.102Z,3.69
2018-02-22T12:32:46.668Z,3.57
2018-02-22T12:35:14.168Z,3.58
2018-02-22T12:37:41.722Z,3.42
2018-02-22T12:40:09.236Z,3.58
2018-02-22T12:42:36.758Z,3.75
2018-02-22T12:45:04.292Z,3.81
2018-02-22T12:47:31.848Z,3.43
2018-02-22T12:49:59.408Z,3.68
2018-02-22T12:52:26.912Z,3.96
2018-02-22T12:54:54.482Z,3.80
2018-02-22T12:57:22.009Z,3.95
2018-02-22T12:59:49.573Z,3.82
2018-02-22T13:02:17.080Z,4.14
2018-02-22T13:04:44.604Z,4.10
2018-02-22T13:07:12.160Z,3.83
2018-02-22T13:09:39.709Z,3.75
2018-02-22T13:12:07.269Z,3.92
2018-02-22T13:14:34.750Z,4.18
2018-02-22T13:17:02.279Z,3.66
2018-02-22T13:19:29.793Z,4.02
2018-02-22T13:21:57.311Z,3.79
2018-02-22T13:24:24.852Z,3.88
2018-02-22T13:26:52.389Z,3.71
2018-02-22T13:29:21.720Z,4.08
2018-02-22T13:31:49.265Z,4.22
2018-02-22T13:34:24.113Z,4.20
2018-02-22T13:36:51.602Z,3.68
2018-02-22T13:39:19.465Z,4.05
2018-02-22T13:41:47.059Z,3.80
2018-02-22T13:44:26.381Z,4.05
2018-02-22T13:46:53.919Z,3.75
2018-02-22T13:49:33.031Z,4.16
2018-02-22T13:52:00.575Z,3.84
2018-02-22T13:54:28.062Z,3.72
2018-02-22T13:57:07.313Z,3.55
2018-02-22T13:59:34.856Z,3.46
2018-02-22T14:02:14.157Z,3.72
2018-02-22T14:04:41.658Z,3.69
2018-02-22T14:07:09.205Z,3.76
2018-02-22T14:09:36.737Z,3.80
2018-02-22T14:12:04.266Z,3.85
2018-02-22T14:14:31.785Z,3.75
2018-02-22T14:16:59.319Z,3.86
2018-02-22T14:19:26.814Z,3.68
2018-02-22T14:21:54.422Z,3.71
2018-02-22T14:24:21.935Z,3.71
2018-02-22T14:26:49.518Z,3.68
2018-02-22T14:29:17.032Z,3.67
2018-02-22T14:31:44.537Z,3.45
2018-02-22T14:34:12.077Z,3.58
2018-02-22T14:36:39.736Z,3.66
2018-02-22T14:39:07.253Z,3.46
2018-02-22T14:41:34.810Z,3.38
2018-02-22T14:44:02.306Z,3.46
2018-02-22T14:46:29.831Z,3.38
2018-02-22T14:48:57.332Z,3.54
2018-02-22T14:51:24.843Z,3.16
2018-02-22T14:53:52.325Z,3.16
2018-02-22T14:56:19.853Z,3.20
2018-02-22T14:58:47.424Z,3.22
2018-02-22T15:01:14.963Z,3.21
2018-02-22T15:03:42.465Z,3.14
2018-02-22T15:06:09.951Z,3.19
2018-02-22T15:08:37.505Z,3.03
2018-02-22T15:11:05.032Z,3.11
2018-02-22T15:13:32.536Z,3.05
2018-02-22T15:16:00.088Z,3.09
2018-02-22T15:18:27.633Z,3.19
2018-02-22T15:20:55.148Z,3.07
2018-02-22T15:23:22.632Z,2.97
2018-02-22T15:25:57.149Z,3.10
2018-02-22T15:28:24.633Z,2.96
2018-02-22T15:30:52.180Z,3.02
2018-02-22T15:33:19.684Z,3.06
2018-02-22T15:35:47.194Z,2.97
2018-02-22T15:38:14.682Z,2.97
2018-02-22T15:40:42.229Z,2.99
2018-02-22T15:43:09.772Z,2.98
2018-02-22T15:45:37.326Z,2.82
2018-02-22T15:48:04.836Z,2.89
2018-02-22T15:50:32.361Z,2.91
2018-02-22T15:52:59.904Z,2.90
2018-02-22T15:55:27.461Z,2.93
2018-02-22T15:57:54.963Z,2.89
2018-02-22T16:00:22.534Z,2.86
2018-02-22T16:02:50.072Z,2.82
2018-02-22T16:05:17.594Z,2.94
2018-02-22T16:07:45.090Z,2.87
2018-02-22T16:10:12.581Z,2.97
2018-02-22T16:12:40.164Z,2.86
2018-02-22T16:15:07.653Z,2.79
2018-02-22T16:17:35.229Z,2.74
2018-02-22T16:20:03.609Z,2.73
2018-02-22T16:22:31.163Z,2.74
2018-02-22T16:24:58.754Z,2.71
2018-02-22T16:27:26.277Z,2.70
2018-02-22T16:29:53.842Z,2.66
2018-02-22T16:32:21.377Z,2.70
2018-02-22T16:34:49.078Z,2.66
2018-02-22T16:37:16.711Z,2.64
2018-02-22T16:39:45.394Z,2.61
2018-02-22T16:42:13.067Z,2.66
2018-02-22T16:44:40.610Z,2.54
2018-02-22T16:47:08.344Z,2.49
2018-02-22T16:49:35.906Z,2.47
2018-02-22T16:52:03.602Z,2.36
2018-02-22T16:54:31.296Z,2.35
2018-02-22T16:57:01.076Z,2.26
2018-02-22T16:59:28.594Z,2.28
2018-02-22T17:01:56.128Z,2.23
2018-02-22T17:04:23.666Z,2.20
2018-02-22T17:06:51.256Z,2.16
2018-02-22T17:09:18.813Z,2.10
2018-02-22T17:11:46.506Z,2.08
2018-02-22T17:14:14.076Z,2.07
2018-02-22T17:16:41.566Z,1.94
2018-02-22T17:19:09.085Z,1.92
2018-02-22T17:21:36.673Z,1.82
2018-02-22T17:24:04.258Z,1.77
2018-02-22T17:26:37.394Z,1.72
2018-02-22T17:29:10.362Z,1.63
2018-02-22T17:31:43.601Z,1.58
2018-02-22T17:34:11.221Z,1.52
2018-02-22T17:36:57.478Z,1.51
2018-02-22T17:39:28.033Z,1.47
2018-02-22T17:41:55.569Z,1.43
2018-02-22T17:44:23.079Z,1.39
2018-02-22T17:46:51.728Z,1.35
2018-02-22T17:49:19.337Z,1.37
2018-02-22T17:51:46.913Z,1.31
2018-02-22T17:54:14.480Z,1.23
2018-02-22T17:56:41.984Z,1.22
2018-02-22T17:59:09.646Z,1.19
2018-02-22T18:01:37.297Z,1.16
2018-02-22T18:04:04.825Z,1.17
2018-02-22T18:06:32.579Z,1.20
2018-02-22T18:09:00.274Z,1.15
2018-02-22T18:11:29.207Z,1.28
2018-02-22T18:13:56.780Z,1.13
2018-02-22T18:16:24.376Z,1.19
2018-02-22T18:18:51.924Z,1.10
2018-02-22T18:21:19.449Z,1.16
2018-02-22T18:23:46.986Z,1.08
2018-02-22T18:26:14.531Z,1.11
2018-02-22T18:28:44.237Z,1.06
2018-02-22T18:31:11.786Z,1.09
2018-02-22T18:33:39.429Z,1.05
2018-02-22T18:36:06.964Z,1.08
2018-02-22T18:38:40.231Z,1.07
2018-02-22T18:41:07.731Z,0.96
2018-02-22T18:43:41.114Z,0.97
2018-02-22T18:46:08.668Z,0.91
2018-02-22T18:48:36.232Z,0.90
2018-02-22T18:51:03.776Z,0.90
2018-02-22T18:53:31.365Z,0.84
2018-02-22T18:55:58.930Z,0.83
2018-02-22T18:58:26.448Z,0.82
2018-02-22T19:00:53.969Z,0.87
2018-02-22T19:03:21.500Z,0.87
2018-02-22T19:05:49.105Z,0.80
2018-02-22T19:08:16.657Z,0.86
2018-02-22T19:10:44.155Z,0.81
2018-02-22T19:13:11.689Z,0.79
2018-02-22T19:15:39.237Z,0.80
2018-02-22T19:18:06.742Z,0.80
2018-02-22T19:20:34.257Z,0.76
2018-02-22T19:23:01.838Z,0.75
2018-02-22T19:25:29.439Z,0.76
2018-02-22T19:27:57.043Z,0.78
2018-02-22T19:30:24.609Z,0.77
2018-02-22T19:32:52.164Z,0.75
2018-02-22T19:35:19.761Z,0.74
2018-02-22T19:37:47.272Z,0.78
2018-02-22T19:40:14.782Z,0.74
2018-02-22T19:42:42.291Z,0.75
2018-02-22T19:45:09.795Z,0.74
2018-02-22T19:47:37.314Z,0.70
2018-02-22T19:50:04.830Z,0.70
2018-02-22T19:52:32.368Z,0.65
2018-02-22T19:54:59.884Z,0.67
2018-02-22T19:57:27.447Z,0.67
2018-02-22T19:59:54.981Z,0.76
2018-02-22T20:02:22.524Z,0.70
2018-02-22T20:04:50.033Z,0.74
2018-02-22T20:07:17.560Z,0.87
2018-02-22T20:09:45.047Z,0.73
2018-02-22T20:12:12.567Z,0.77
2018-02-22T20:14:40.069Z,0.74
2018-02-22T20:17:07.631Z,0.73
2018-02-22T20:19:35.124Z,0.74
2018-02-22T20:22:02.654Z,0.76
2018-02-22T20:24:30.173Z,0.73
2018-02-22T20:26:57.724Z,0.77
2018-02-22T20:29:25.237Z,0.72
2018-02-22T20:31:52.745Z,0.74
2018-02-22T20:34:20.304Z,0.76
2018-02-22T20:36:47.914Z,0.71
2018-02-22T20:39:16.234Z,0.70
2018-02-22T20:41:43.737Z,0.71
2018-02-22T20:44:11.339Z,0.71
2018-02-22T20:46:38.920Z,0.75
2018-02-22T20:49:06.443Z,0.75
2018-02-22T20:51:36.916Z,0.69
2018-02-22T20:54:04.527Z,0.75
2018-02-22T20:56:32.076Z,0.76
2018-02-22T20:58:59.574Z,0.75
2018-02-22T21:01:27.133Z,0.71
2018-02-22T21:03:54.651Z,0.67
2018-02-22T21:06:22.393Z,0.70
2018-02-22T21:08:49.895Z,0.73
2018-02-22T21:11:18.216Z,0.68
2018-02-22T21:13:45.808Z,0.71
2018-02-22T21:16:13.440Z,0.71
2018-02-22T21:18:40.975Z,0.69
2018-02-22T21:21:08.500Z,0.69
2018-02-22T21:23:36.071Z,0.78
2018-02-22T21:26:03.768Z,0.79
2018-02-22T21:28:31.289Z,0.67
2018-02-22T21:30:58.780Z,0.66
2018-02-22T21:33:26.497Z,0.60
2018-02-22T21:35:54.024Z,0.63
2018-02-22T21:38:21.523Z,0.66
2018-02-22T21:40:49.296Z,0.60
2018-02-22T21:43:16.954Z,0.57
2018-02-22T21:45:44.639Z,0.71
2018-02-22T21:48:12.503Z,0.67
2018-02-22T21:50:40.037Z,0.57
2018-02-22T21:53:07.639Z,0.55
2018-02-22T21:55:35.273Z,0.55
2018-02-22T21:58:02.934Z,0.40
2018-02-22T22:00:30.414Z,0.35
2018-02-22T22:02:58.253Z,0.33
2018-02-22T22:05:26.136Z,0.39
2018-02-22T22:07:53.739Z,0.34
2018-02-22T22:10:21.236Z,0.28
2018-02-22T22:12:48.752Z,0.26
2018-02-22T22:15:16.250Z,0.21
2018-02-22T22:17:43.811Z,0.19
2018-02-22T22:20:11.318Z,0.20
2018-02-22T22:22:38.843Z,0.18
2018-02-22T22:25:06.381Z,0.09
2018-02-22T22:27:34.122Z,0.08
2018-02-22T22:30:01.639Z,0.02
2018-02-22T22:32:29.166Z,-0.02
2018-02-22T22:34:56.675Z,-0.04
2018-02-22T22:37:24.396Z,-0.01
2018-02-22T22:39:51.943Z,-0.09
2018-02-22T22:42:19.486Z,-0.13
2018-02-22T22:44:46.993Z,-0.21
2018-02-22T22:47:14.550Z,-0.24
2018-02-22T22:49:43.606Z,-0.27
2018-02-22T22:52:11.176Z,-0.29
2018-02-22T22:54:39.456Z,-0.32
2018-02-22T22:57:06.983Z,-0.37
2018-02-22T22:59:34.482Z,-0.37
2018-02-22T23:02:02.036Z,-0.39
2018-02-22T23:04:29.659Z,-0.42
2018-02-22T23:06:57.158Z,-0.48
2018-02-22T23:09:24.893Z,-0.45
2018-02-22T23:11:52.584Z,-0.48
2018-02-22T23:14:20.168Z,-0.46
2018-02-22T23:16:48.148Z,-0.50
2018-02-22T23:19:15.837Z,-0.54
2018-02-22T23:21:43.366Z,-0.53
2018-02-22T23:24:10.909Z,-0.55
2018-02-22T23:26:38.482Z,-0.48
2018-02-22T23:29:06.016Z,-0.43
2018-02-22T23:31:33.567Z,-0.45
2018-02-22T23:34:01.136Z,-0.47
2018-02-22T23:36:28.666Z,-0.40
2018-02-22T23:38:57.088Z,-0.42
2018-02-22T23:41:30.261Z,-0.48
2018-02-22T23:43:57.785Z,-0.50
2018-02-22T23:46:25.299Z,-0.47
2018-02-22T23:48:52.818Z,-0.45
2018-02-22T23:51:20.327Z,-0.45
2018-02-22T23:53:47.854Z,-0.44
2018-02-22T23:56:15.377Z,-0.44
2018-02-22T23:58:42.976Z,-0.45
